Time;durP1;ratioP1;P1;durP2;ratioP2;P2;SDS_P1;SDS_P2;PMS_P1;PMS_P2;Temp;Humidity;BMP_temperature;BMP_pressure;BME280_temperature;BME280_humidity;BME280_pressure;Samples;Min_cycle;Max_cycle;Signal;HPM_P1;HPM_P2
2022/03/14 00:00:09;;;;;;;15.82;4.90;;;9.30;80.80;;;;;;5037591;28;20029;-66
2022/03/14 00:02:35;;;;;;;20.00;5.45;;;9.40;81.50;;;;;;5046542;28;20486;-67
2022/03/14 00:05:04;;;;;;;14.13;4.18;;;9.40;81.20;;;;;;5038323;28;20029;-67
2022/03/14 00:07:30;;;;;;;20.90;5.35;;;9.70;80.00;;;;;;5045136;28;20024;-66
2022/03/14 00:09:56;;;;;;;12.68;4.85;;;10.10;79.40;;;;;;5043724;28;20420;-66
2022/03/14 00:12:23;;;;;;;9.20;3.55;;;9.90;80.80;;;;;;5045546;28;20037;-66
2022/03/14 00:14:55;;;;;;;18.92;6.03;;;9.90;81.50;;;;;;5039622;28;20029;-66
2022/03/14 00:17:21;;;;;;;13.85;4.53;;;9.70;81.50;;;;;;5042172;28;20152;-66
2022/03/14 00:19:47;;;;;;;20.52;5.20;;;9.60;81.30;;;;;;5043635;28;20108;-66
2022/03/14 00:22:19;;;;;;;11.90;4.75;;;9.60;82.20;;;;;;5045100;28;20191;-66
2022/03/14 00:24:44;;;;;;;20.33;5.50;;;9.50;81.90;;;;;;5041461;28;20033;-66
2022/03/14 00:27:10;;;;;;;16.65;5.22;;;9.50;81.30;;;;;;5043413;28;20083;-66
2022/03/14 00:29:36;;;;;;;12.00;4.75;;;9.40;81.90;;;;;;5041388;28;20038;-66
2022/03/14 00:32:02;;;;;;;13.65;5.35;;;9.50;80.70;;;;;;5044810;28;20032;-66
2022/03/14 00:34:27;;;;;;;14.93;4.93;;;9.60;80.30;;;;;;5047031;28;20182;-66
2022/03/14 00:36:53;;;;;;;15.68;5.10;;;9.50;81.80;;;;;;5035449;28;20037;-66
2022/03/14 00:39:19;;;;;;;14.40;4.65;;;9.60;82.20;;;;;;5044032;28;20024;-66
2022/03/14 00:41:45;;;;;;;13.15;5.00;;;9.60;83.40;;;;;;5040695;28;20033;-67
2022/03/14 00:44:15;;;;;;;12.43;4.55;;;9.60;83.10;;;;;;5044768;28;20110;-66
2022/03/14 00:46:42;;;;;;;13.18;5.60;;;9.70;82.50;;;;;;5042107;28;20029;-67
2022/03/14 00:49:08;;;;;;;16.58;4.97;;;9.70;82.20;;;;;;5037635;28;20472;-66
2022/03/14 00:51:34;;;;;;;13.43;4.32;;;9.70;82.00;;;;;;5045183;28;20044;-66
2022/03/14 00:54:00;;;;;;;16.25;5.55;;;9.70;83.50;;;;;;5039597;28;20119;-66
2022/03/14 00:56:27;;;;;;;13.68;4.47;;;9.70;84.60;;;;;;5041597;28;20048;-66
2022/03/14 00:58:53;;;;;;;14.13;4.78;;;9.70;84.90;;;;;;5037364;28;20029;-66
2022/03/14 01:01:18;;;;;;;15.00;5.35;;;9.70;85.60;;;;;;5045056;28;20033;-66
2022/03/14 01:03:44;;;;;;;12.50;4.18;;;9.70;82.70;;;;;;5044340;28;20035;-67
2022/03/14 01:06:13;;;;;;;10.82;4.38;;;9.60;82.50;;;;;;5034189;28;20059;-67
2022/03/14 01:08:38;;;;;;;12.70;4.97;;;9.60;83.80;;;;;;5042513;28;20475;-67
2022/03/14 01:11:04;;;;;;;11.27;5.03;;;9.70;83.30;;;;;;5046908;28;20041;-67
2022/03/14 01:13:30;;;;;;;11.45;4.63;;;9.60;84.20;;;;;;5049357;28;20025;-66
2022/03/14 01:15:56;;;;;;;16.42;4.78;;;9.60;85.30;;;;;;5040304;28;20025;-66
2022/03/14 01:18:21;;;;;;;13.38;4.13;;;9.70;87.20;;;;;;5044260;28;20025;-66
2022/03/14 01:20:47;;;;;;;11.70;4.00;;;9.60;85.80;;;;;;5043966;28;20481;-66
2022/03/14 01:23:13;;;;;;;15.68;4.28;;;9.50;86.80;;;;;;5037519;28;20029;-66
2022/03/14 01:25:39;;;;;;;10.77;4.25;;;9.50;87.30;;;;;;5049834;28;20542;-66
2022/03/14 01:28:05;;;;;;;17.63;5.32;;;9.60;86.30;;;;;;5043463;28;20096;-66
2022/03/14 01:30:31;;;;;;;12.27;5.40;;;9.80;84.00;;;;;;5040254;28;20053;-66
2022/03/14 01:32:58;;;;;;;15.65;4.55;;;10.30;80.40;;;;;;5045609;28;20029;-66
2022/03/14 01:35:24;;;;;;;13.77;3.88;;;10.20;80.00;;;;;;5043781;28;20017;-66
2022/03/14 01:37:52;;;;;;;11.20;3.95;;;10.20;79.70;;;;;;5043684;28;20470;-66
2022/03/14 01:40:19;;;;;;;14.27;4.40;;;10.10;82.00;;;;;;5044923;28;20393;-66
2022/03/14 01:42:45;;;;;;;13.65;5.18;;;9.90;87.90;;;;;;5049674;28;20029;-66
2022/03/14 01:45:12;;;;;;;12.80;4.45;;;9.80;90.60;;;;;;5044266;28;20052;-66
2022/03/14 01:47:39;;;;;;;12.95;4.60;;;9.50;93.50;;;;;;5048875;28;20480;-66
2022/03/14 01:50:05;;;;;;;14.90;5.40;;;9.30;94.40;;;;;;5042024;28;20026;-67
2022/03/14 01:52:32;;;;;;;11.23;5.07;;;9.20;99.60;;;;;;5050125;28;20021;-66
2022/03/14 01:54:57;;;;;;;15.02;5.57;;;8.90;99.90;;;;;;5045967;28;20032;-66
2022/03/14 01:57:23;;;;;;;13.95;4.50;;;8.80;99.90;;;;;;5046789;28;20029;-66
2022/03/14 01:59:49;;;;;;;12.05;3.95;;;8.90;99.90;;;;;;5043130;28;20079;-67
2022/03/14 02:02:14;;;;;;;13.73;5.80;;;8.80;99.90;;;;;;5049965;28;20029;-66
2022/03/14 02:04:40;;;;;;;14.15;5.68;;;8.80;99.90;;;;;;5042937;28;20477;-66
2022/03/14 02:07:06;;;;;;;11.95;4.75;;;8.70;99.90;;;;;;5037656;28;20061;-66
2022/03/14 02:09:31;;;;;;;13.00;5.57;;;8.60;99.90;;;;;;5046661;28;20036;-66
2022/03/14 02:11:57;;;;;;;11.23;3.80;;;8.50;99.90;;;;;;5041691;28;20034;-66
2022/03/14 02:14:24;;;;;;;7.30;4.20;;;8.50;99.90;;;;;;5047112;28;20477;-66
2022/03/14 02:16:51;;;;;;;10.45;4.07;;;8.50;99.90;;;;;;5050361;28;20444;-66
2022/03/14 02:19:17;;;;;;;12.52;4.40;;;8.60;99.90;;;;;;5041251;28;20100;-66
2022/03/14 02:21:43;;;;;;;12.27;5.05;;;8.50;99.90;;;;;;5050747;28;20035;-67
2022/03/14 02:24:09;;;;;;;13.30;5.30;;;8.40;99.90;;;;;;5041943;28;20029;-67
2022/03/14 02:26:39;;;;;;;10.40;4.13;;;8.30;99.90;;;;;;5047747;28;20099;-68
2022/03/14 02:29:09;;;;;;;8.88;3.47;;;8.30;99.90;;;;;;5040420;28;20440;-68
2022/03/14 02:31:38;;;;;;;10.70;5.43;;;8.20;99.90;;;;;;5046632;28;20045;-68
2022/03/14 02:34:05;;;;;;;4.90;2.53;;;8.10;99.90;;;;;;5048015;28;20033;-68
2022/03/14 02:36:31;;;;;;;9.75;4.43;;;8.20;99.90;;;;;;5043948;28;20021;-68
2022/03/14 02:38:57;;;;;;;12.00;4.82;;;8.10;99.90;;;;;;5046530;28;20147;-68
2022/03/14 02:41:23;;;;;;;15.02;5.32;;;8.00;99.90;;;;;;5042655;28;20562;-68
2022/03/14 02:43:49;;;;;;;12.10;4.30;;;8.00;99.90;;;;;;5046816;28;20060;-68
2022/03/14 02:46:15;;;;;;;11.73;4.85;;;7.90;99.90;;;;;;5046537;28;20115;-68
2022/03/14 02:48:41;;;;;;;15.25;5.28;;;7.90;99.90;;;;;;5040355;28;20466;-68
2022/03/14 02:51:08;;;;;;;18.90;4.35;;;8.00;99.90;;;;;;5043274;28;20090;-68
2022/03/14 02:53:33;;;;;;;10.98;4.70;;;8.10;99.90;;;;;;5039882;28;20056;-68
2022/03/14 02:55:59;;;;;;;18.65;5.38;;;8.20;99.90;;;;;;5048995;28;20473;-67
2022/03/14 02:58:28;;;;;;;13.10;5.03;;;8.20;99.90;;;;;;5043612;28;20025;-67
2022/03/14 03:00:54;;;;;;;13.68;5.35;;;8.10;99.90;;;;;;5043203;28;20029;-68
2022/03/14 03:03:19;;;;;;;12.15;5.13;;;8.00;99.90;;;;;;5047770;28;20040;-67
2022/03/14 03:05:45;;;;;;;8.90;4.22;;;8.00;99.90;;;;;;5042463;28;20397;-67
2022/03/14 03:08:11;;;;;;;9.45;4.55;;;7.90;99.90;;;;;;5042769;28;20028;-68
2022/03/14 03:10:37;;;;;;;9.20;3.63;;;7.90;99.90;;;;;;5046456;28;20086;-67
2022/03/14 03:13:03;;;;;;;11.20;4.55;;;7.90;99.90;;;;;;5046522;28;20033;-68
2022/03/14 03:15:29;;;;;;;12.82;4.55;;;7.90;99.90;;;;;;5046494;28;20090;-68
2022/03/14 03:17:55;;;;;;;9.30;3.60;;;7.90;99.90;;;;;;5043838;28;20541;-68
2022/03/14 03:20:21;;;;;;;7.82;3.65;;;7.80;99.90;;;;;;5045154;28;20472;-68
2022/03/14 03:22:47;;;;;;;8.90;4.13;;;7.90;99.90;;;;;;5040997;28;20056;-68
2022/03/14 03:25:13;;;;;;;10.88;3.45;;;7.90;99.90;;;;;;5046060;28;20078;-67
2022/03/14 03:27:38;;;;;;;12.05;4.93;;;7.80;99.90;;;;;;5038171;28;20025;-68
2022/03/14 03:30:05;;;;;;;17.08;5.03;;;7.90;99.90;;;;;;5043571;28;20063;-68
2022/03/14 03:32:31;;;;;;;10.88;3.33;;;7.80;99.90;;;;;;5045187;28;20150;-68
2022/03/14 03:34:57;;;;;;;8.15;3.78;;;7.80;99.90;;;;;;5041966;28;20112;-68
2022/03/14 03:37:22;;;;;;;10.00;3.78;;;7.80;99.90;;;;;;5047728;28;20501;-68
2022/03/14 03:39:48;;;;;;;13.00;4.25;;;7.80;99.90;;;;;;5041832;28;20025;-68
2022/03/14 03:42:13;;;;;;;19.88;4.90;;;7.80;99.90;;;;;;5046409;28;20044;-68
2022/03/14 03:44:39;;;;;;;7.97;3.72;;;7.80;99.90;;;;;;5039130;28;20458;-68
2022/03/14 03:47:05;;;;;;;12.25;4.15;;;7.90;99.90;;;;;;5043146;28;20030;-68
2022/03/14 03:49:31;;;;;;;8.23;3.72;;;7.90;99.90;;;;;;5044975;28;20071;-68
2022/03/14 03:51:57;;;;;;;8.90;3.70;;;7.90;99.90;;;;;;5043406;28;20021;-68
2022/03/14 03:54:23;;;;;;;8.77;3.78;;;7.90;99.90;;;;;;5045327;28;20021;-68
2022/03/14 03:56:49;;;;;;;9.10;3.70;;;7.90;99.90;;;;;;5045659;28;20528;-68
2022/03/14 03:59:15;;;;;;;12.65;3.88;;;7.90;99.90;;;;;;5038745;28;20401;-68
2022/03/14 04:01:41;;;;;;;11.68;3.53;;;7.90;99.90;;;;;;5043699;28;20032;-68
2022/03/14 04:04:07;;;;;;;13.02;4.18;;;7.90;99.90;;;;;;5049361;28;20029;-68
2022/03/14 04:06:34;;;;;;;16.95;4.97;;;7.80;99.90;;;;;;5041275;28;20030;-68
2022/03/14 04:09:03;;;;;;;13.77;4.43;;;7.70;99.90;;;;;;5044804;28;20429;-68
2022/03/14 04:11:29;;;;;;;9.95;4.40;;;7.70;99.90;;;;;;5038830;28;20083;-68
2022/03/14 04:13:58;;;;;;;6.10;2.40;;;7.80;99.90;;;;;;5044754;28;20035;-68
2022/03/14 04:16:27;;;;;;;11.88;3.22;;;7.80;99.90;;;;;;5038790;28;20522;-68
2022/03/14 04:18:53;;;;;;;9.88;4.70;;;7.70;99.90;;;;;;5043108;28;20382;-68
2022/03/14 04:21:20;;;;;;;12.65;4.35;;;7.70;99.90;;;;;;5039951;28;20024;-68
2022/03/14 04:23:46;;;;;;;15.98;4.32;;;7.70;99.90;;;;;;5044245;28;20029;-68
2022/03/14 04:26:12;;;;;;;10.98;4.30;;;7.70;99.90;;;;;;5049421;28;20385;-68
2022/03/14 04:28:40;;;;;;;16.70;4.88;;;7.80;99.90;;;;;;5036393;28;20025;-68
2022/03/14 04:31:06;;;;;;;7.85;2.75;;;7.80;99.90;;;;;;5043830;28;20076;-68
2022/03/14 04:33:33;;;;;;;10.20;3.28;;;7.90;99.90;;;;;;5045063;28;20110;-68
2022/03/14 04:35:59;;;;;;;8.07;3.53;;;7.80;99.90;;;;;;5047752;28;20425;-68
2022/03/14 04:38:26;;;;;;;7.72;3.65;;;7.80;99.90;;;;;;5042927;28;20029;-68
2022/03/14 04:40:52;;;;;;;12.00;3.83;;;7.90;99.90;;;;;;5044827;28;20024;-68
2022/03/14 04:43:21;;;;;;;11.50;4.50;;;7.90;99.90;;;;;;5039435;28;20099;-68
2022/03/14 04:45:47;;;;;;;10.15;3.92;;;7.80;99.90;;;;;;5044754;28;20021;-68
2022/03/14 04:48:13;;;;;;;9.43;3.40;;;7.90;99.90;;;;;;5042617;28;20060;-68
2022/03/14 04:50:39;;;;;;;7.43;3.42;;;7.90;99.90;;;;;;5042372;28;20067;-68
2022/03/14 04:53:06;;;;;;;7.75;3.15;;;7.90;99.90;;;;;;5043542;28;20028;-68
2022/03/14 04:55:34;;;;;;;10.95;3.95;;;7.90;99.90;;;;;;5041943;28;20060;-68
2022/03/14 04:58:00;;;;;;;8.45;3.28;;;7.90;99.90;;;;;;5045153;28;20027;-68
2022/03/14 05:00:27;;;;;;;10.65;4.13;;;7.90;99.90;;;;;;5046711;28;20466;-69
2022/03/14 05:02:58;;;;;;;6.10;2.08;;;7.90;99.90;;;;;;5052754;28;20028;-68
2022/03/14 05:05:24;;;;;;;7.60;2.67;;;7.90;99.90;;;;;;5037066;28;20055;-68
2022/03/14 05:07:50;;;;;;;11.05;3.50;;;7.90;99.90;;;;;;5049908;28;20096;-68
2022/03/14 05:10:16;;;;;;;7.97;3.50;;;7.90;99.90;;;;;;5050334;28;20036;-68
2022/03/14 05:12:41;;;;;;;9.63;3.05;;;7.90;99.90;;;;;;5049810;28;20040;-68
2022/03/14 05:15:07;;;;;;;10.20;3.03;;;7.90;99.90;;;;;;5050989;28;20109;-68
2022/03/14 05:17:34;;;;;;;8.45;3.15;;;7.90;99.90;;;;;;5046983;28;20032;-68
2022/03/14 05:20:00;;;;;;;8.35;2.55;;;7.90;99.90;;;;;;5050177;28;20025;-68
2022/03/14 05:22:25;;;;;;;12.05;3.33;;;7.90;99.90;;;;;;5047540;28;20135;-68
2022/03/14 05:24:51;;;;;;;9.52;3.72;;;7.80;99.90;;;;;;5051227;28;20547;-68
2022/03/14 05:27:17;;;;;;;5.68;2.95;;;7.80;99.90;;;;;;5041256;28;20030;-69
2022/03/14 05:29:43;;;;;;;7.70;2.90;;;7.80;99.90;;;;;;5046657;28;20053;-69
2022/03/14 05:32:08;;;;;;;6.82;2.95;;;7.90;99.90;;;;;;5049755;28;20113;-69
2022/03/14 05:34:37;;;;;;;11.35;3.92;;;7.80;99.90;;;;;;5046816;28;20080;-69
2022/03/14 05:37:03;;;;;;;7.15;3.10;;;7.80;99.90;;;;;;5049094;28;20025;-67
2022/03/14 05:39:29;;;;;;;7.80;2.30;;;7.70;99.90;;;;;;5052398;28;20091;-67
2022/03/14 05:41:55;;;;;;;7.88;2.45;;;7.90;99.90;;;;;;5045963;28;20071;-67
2022/03/14 05:44:21;;;;;;;4.82;2.20;;;7.70;99.90;;;;;;5052064;28;20056;-69
2022/03/14 05:46:47;;;;;;;8.32;3.22;;;7.80;99.90;;;;;;5048116;28;20063;-69
2022/03/14 05:49:12;;;;;;;6.25;2.55;;;7.90;99.90;;;;;;5047629;28;20025;-69
2022/03/14 05:51:39;;;;;;;7.43;2.17;;;7.70;99.90;;;;;;5047230;28;20473;-69
2022/03/14 05:54:05;;;;;;;6.45;2.95;;;7.80;99.90;;;;;;5047758;28;20035;-69
2022/03/14 05:56:31;;;;;;;3.95;1.77;;;7.80;99.90;;;;;;5055810;28;20071;-69
2022/03/14 05:58:58;;;;;;;5.63;2.13;;;7.80;99.90;;;;;;5051368;28;20025;-69
2022/03/14 06:01:23;;;;;;;6.78;2.53;;;7.70;99.90;;;;;;5045765;28;20053;-69
2022/03/14 06:03:50;;;;;;;7.07;3.05;;;7.80;99.90;;;;;;5049712;28;20548;-68
2022/03/14 06:06:15;;;;;;;4.65;1.60;;;7.70;99.90;;;;;;5046404;28;20445;-68
2022/03/14 06:08:41;;;;;;;6.07;2.00;;;7.80;99.90;;;;;;5047864;28;20114;-68
2022/03/14 06:11:08;;;;;;;5.90;2.83;;;7.70;99.90;;;;;;5045681;28;20104;-68
2022/03/14 06:13:34;;;;;;;6.18;1.67;;;7.70;99.90;;;;;;5051127;28;20063;-68
2022/03/14 06:15:59;;;;;;;3.88;1.80;;;7.70;99.90;;;;;;5045282;28;20562;-67
2022/03/14 06:18:25;;;;;;;8.00;1.70;;;7.70;99.90;;;;;;5042053;28;20082;-68
2022/03/14 06:20:54;;;;;;;4.88;1.50;;;7.70;99.90;;;;;;5041368;28;20048;-68
2022/03/14 06:23:19;;;;;;;4.80;1.63;;;7.70;99.90;;;;;;5045970;28;20036;-68
2022/03/14 06:25:45;;;;;;;4.95;1.65;;;7.70;99.90;;;;;;5045543;28;20531;-68
2022/03/14 06:28:11;;;;;;;4.25;1.73;;;7.80;99.90;;;;;;5048030;28;20327;-68
2022/03/14 06:30:36;;;;;;;5.00;2.03;;;7.60;99.90;;;;;;5038234;28;20131;-68
2022/03/14 06:33:02;;;;;;;5.68;1.90;;;7.70;99.90;;;;;;5046577;28;20422;-68
2022/03/14 06:35:28;;;;;;;4.22;2.10;;;7.70;99.90;;;;;;5047910;28;20096;-68
2022/03/14 06:37:53;;;;;;;4.75;2.13;;;7.80;99.90;;;;;;5044279;28;20496;-68
2022/03/14 06:40:21;;;;;;;7.53;2.22;;;7.80;99.90;;;;;;5046399;28;20496;-68
2022/03/14 06:42:51;;;;;;;2.97;1.45;;;7.90;99.90;;;;;;5052808;28;20100;-68
2022/03/14 06:45:23;;;;;;;6.10;2.60;;;7.90;99.90;;;;;;5047645;28;20116;-68
2022/03/14 06:47:53;;;;;;;11.65;2.50;;;7.90;99.90;;;;;;5039794;28;20033;-68
2022/03/14 06:50:20;;;;;;;5.65;1.98;;;8.00;99.90;;;;;;5047670;28;20024;-68
2022/03/14 06:52:45;;;;;;;6.93;2.83;;;7.90;99.90;;;;;;5040760;28;20049;-68
2022/03/14 06:55:11;;;;;;;5.25;2.33;;;8.00;99.90;;;;;;5046262;28;20075;-68
2022/03/14 06:57:38;;;;;;;8.70;2.20;;;8.00;99.90;;;;;;5040041;28;20501;-68
2022/03/14 07:00:04;;;;;;;6.13;2.78;;;8.10;99.90;;;;;;5043375;28;20191;-68
2022/03/14 07:02:30;;;;;;;4.25;1.80;;;8.10;99.90;;;;;;5045653;28;20049;-69
2022/03/14 07:04:56;;;;;;;5.07;2.05;;;8.20;99.90;;;;;;5038460;28;20033;-68
2022/03/14 07:07:21;;;;;;;8.02;3.40;;;8.30;99.90;;;;;;5044231;28;20075;-68
2022/03/14 07:09:47;;;;;;;7.63;3.10;;;8.30;99.90;;;;;;5040952;28;20040;-68
2022/03/14 07:12:13;;;;;;;4.40;1.92;;;8.20;99.90;;;;;;5046635;28;20028;-68
2022/03/14 07:14:39;;;;;;;6.28;2.33;;;8.20;99.90;;;;;;5043778;28;20028;-68
2022/03/14 07:17:05;;;;;;;6.10;2.33;;;8.20;99.90;;;;;;5043592;28;20025;-68
2022/03/14 07:19:31;;;;;;;5.50;2.17;;;8.30;99.90;;;;;;5045645;28;20060;-69
2022/03/14 07:21:56;;;;;;;7.00;3.45;;;8.30;99.90;;;;;;5040068;28;20033;-68
2022/03/14 07:24:22;;;;;;;9.88;3.35;;;8.40;99.90;;;;;;5046694;28;20041;-68
2022/03/14 07:26:47;;;;;;;21.17;3.35;;;8.30;99.90;;;;;;5041807;28;20127;-68
2022/03/14 07:29:14;;;;;;;11.35;2.67;;;8.30;99.90;;;;;;5041714;28;20028;-68
2022/03/14 07:31:41;;;;;;;8.02;2.85;;;8.30;99.90;;;;;;5043678;28;20062;-67
2022/03/14 07:34:07;;;;;;;8.00;2.50;;;8.40;99.90;;;;;;5043116;28;20505;-68
2022/03/14 07:36:34;;;;;;;6.68;3.13;;;8.40;99.90;;;;;;5037885;28;20338;-68
2022/03/14 07:39:00;;;;;;;7.18;2.72;;;8.40;99.90;;;;;;5045492;28;20033;-68
2022/03/14 07:41:26;;;;;;;6.45;2.42;;;8.40;99.90;;;;;;5039661;28;20497;-67
2022/03/14 07:43:52;;;;;;;3.92;1.70;;;8.40;99.90;;;;;;5046198;28;20110;-68
2022/03/14 07:46:18;;;;;;;4.95;2.25;;;8.40;99.90;;;;;;5044542;28;20079;-67
2022/03/14 07:48:43;;;;;;;6.50;2.90;;;8.30;99.90;;;;;;5038461;28;20477;-67
2022/03/14 07:51:09;;;;;;;5.70;1.98;;;8.30;99.90;;;;;;5046686;28;20025;-68
2022/03/14 07:53:35;;;;;;;8.13;3.10;;;8.30;99.90;;;;;;5039252;28;20485;-67
2022/03/14 07:56:01;;;;;;;8.60;3.50;;;8.30;99.90;;;;;;5042766;28;20558;-67
2022/03/14 07:58:27;;;;;;;6.43;2.25;;;8.30;99.90;;;;;;5037947;28;20025;-67
2022/03/14 08:00:53;;;;;;;9.25;2.60;;;8.40;99.90;;;;;;5049042;28;20035;-67
2022/03/14 08:03:23;;;;;;;7.40;2.42;;;8.40;99.90;;;;;;5044806;28;20382;-67
2022/03/14 08:05:58;;;;;;;6.22;2.88;;;8.50;99.90;;;;;;5036619;28;20481;-67
2022/03/14 08:08:25;;;;;;;5.05;2.17;;;8.50;99.90;;;;;;5039813;28;20117;-67
2022/03/14 08:10:50;;;;;;;9.13;2.70;;;8.60;99.90;;;;;;5040117;28;20564;-67
2022/03/14 08:13:16;;;;;;;8.88;3.08;;;8.70;99.90;;;;;;5046571;28;20033;-67
2022/03/14 08:15:41;;;;;;;10.20;2.92;;;8.70;99.90;;;;;;5040457;28;20444;-68
2022/03/14 08:18:08;;;;;;;7.20;3.05;;;8.70;99.90;;;;;;5044185;28;20025;-67
2022/03/14 08:20:36;;;;;;;4.72;2.42;;;8.70;99.90;;;;;;5044151;28;20107;-67
2022/03/14 08:23:03;;;;;;;6.60;2.38;;;8.80;99.90;;;;;;5043504;28;20649;-67
2022/03/14 08:25:34;;;;;;;6.88;2.33;;;8.90;99.90;;;;;;5043103;28;20072;-67
2022/03/14 08:27:59;;;;;;;9.18;2.88;;;8.90;99.90;;;;;;5039741;28;20401;-67
2022/03/14 08:30:25;;;;;;;3.83;2.00;;;8.90;99.90;;;;;;5039306;28;20333;-67
2022/03/14 08:32:53;;;;;;;6.47;2.60;;;8.90;99.90;;;;;;5040241;28;20071;-67
2022/03/14 08:35:20;;;;;;;4.45;2.35;;;8.90;99.90;;;;;;5045045;28;20024;-67
2022/03/14 08:37:48;;;;;;;5.28;1.58;;;9.00;99.90;;;;;;5045376;28;20481;-67
2022/03/14 08:40:16;;;;;;;7.78;2.40;;;9.00;99.90;;;;;;5043319;28;20028;-67
2022/03/14 08:42:44;;;;;;;4.93;1.98;;;9.00;99.90;;;;;;5045553;28;20369;-67
2022/03/14 08:45:12;;;;;;;6.82;2.92;;;9.00;99.90;;;;;;5042769;28;20033;-67
2022/03/14 08:47:37;;;;;;;12.85;2.75;;;9.00;99.90;;;;;;5044991;28;20020;-68
2022/03/14 08:50:07;;;;;;;7.03;2.90;;;9.00;99.90;;;;;;5037821;28;20131;-67
2022/03/14 08:52:33;;;;;;;11.13;2.80;;;9.10;99.90;;;;;;5042715;28;20100;-68
2022/03/14 08:54:59;;;;;;;9.02;2.95;;;9.20;99.90;;;;;;5043322;28;20059;-67
2022/03/14 08:57:25;;;;;;;5.13;2.55;;;9.30;99.90;;;;;;5044916;28;20028;-67
2022/03/14 08:59:50;;;;;;;5.55;1.92;;;9.40;99.90;;;;;;5040352;28;20028;-68
2022/03/14 09:02:16;;;;;;;3.78;1.75;;;9.50;99.90;;;;;;5047005;28;20036;-67
2022/03/14 09:04:41;;;;;;;8.85;3.13;;;9.60;99.90;;;;;;5038626;28;20041;-68
2022/03/14 09:07:08;;;;;;;9.80;3.38;;;9.60;99.90;;;;;;5040320;28;20056;-67
2022/03/14 09:09:34;;;;;;;5.53;2.10;;;9.60;99.90;;;;;;5043204;28;20033;-67
2022/03/14 09:12:00;;;;;;;8.35;3.00;;;9.80;99.90;;;;;;5044867;28;20051;-67
2022/03/14 09:14:26;;;;;;;5.22;2.47;;;9.80;99.90;;;;;;5039365;28;20032;-67
2022/03/14 09:16:52;;;;;;;23.85;2.63;;;9.90;99.90;;;;;;5046643;28;20025;-67
2022/03/14 09:19:18;;;;;;;8.88;2.80;;;10.00;99.90;;;;;;5047368;28;20074;-67
2022/03/14 09:21:44;;;;;;;6.55;1.90;;;9.90;99.90;;;;;;5042744;28;20056;-67
2022/03/14 09:24:09;;;;;;;5.10;1.98;;;9.90;99.90;;;;;;5043520;28;20040;-67
2022/03/14 09:26:37;;;;;;;2.67;1.50;;;10.00;99.90;;;;;;5041683;28;20462;-67
2022/03/14 09:29:04;;;;;;;6.60;2.35;;;10.10;99.90;;;;;;5041030;28;20025;-67
2022/03/14 09:31:29;;;;;;;3.05;1.63;;;10.00;99.90;;;;;;5038826;28;20333;-68
2022/03/14 09:33:55;;;;;;;5.00;1.88;;;10.00;99.90;;;;;;5043264;28;20485;-67
2022/03/14 09:36:20;;;;;;;4.00;1.65;;;9.90;99.90;;;;;;5034921;28;20280;-67
2022/03/14 09:38:46;;;;;;;5.38;1.92;;;9.90;99.90;;;;;;5041716;28;20375;-67
2022/03/14 09:41:15;;;;;;;6.78;2.97;;;10.00;99.90;;;;;;5037702;28;20029;-67
2022/03/14 09:43:42;;;;;;;7.78;2.33;;;10.00;99.90;;;;;;5042043;28;20036;-67
2022/03/14 09:46:09;;;;;;;18.92;3.15;;;10.00;99.90;;;;;;5041221;28;20024;-67
2022/03/14 09:48:40;;;;;;;7.07;2.55;;;10.00;99.90;;;;;;5041415;28;20067;-67
2022/03/14 09:51:07;;;;;;;7.82;3.20;;;10.20;99.90;;;;;;5049889;28;20115;-67
2022/03/14 09:53:34;;;;;;;2.33;1.20;;;10.20;99.90;;;;;;5040010;28;20405;-67
2022/03/14 09:56:00;;;;;;;6.03;1.75;;;10.30;99.90;;;;;;5051010;28;20319;-67
2022/03/14 09:58:26;;;;;;;9.25;2.97;;;10.30;99.90;;;;;;5048374;28;20393;-67
2022/03/14 10:00:53;;;;;;;7.72;1.90;;;10.30;99.90;;;;;;5045123;28;20028;-67
2022/03/14 10:03:20;;;;;;;5.63;2.40;;;10.50;99.90;;;;;;5040799;28;20593;-67
2022/03/14 10:05:46;;;;;;;5.35;2.25;;;10.70;99.90;;;;;;5044240;28;20052;-67
2022/03/14 10:08:12;;;;;;;5.38;1.85;;;10.80;99.90;;;;;;5041921;28;20069;-67
2022/03/14 10:10:39;;;;;;;5.15;1.85;;;10.80;99.90;;;;;;5045089;28;20044;-67
2022/03/14 10:13:09;;;;;;;6.40;2.58;;;10.80;99.90;;;;;;5040619;28;20093;-67
2022/03/14 10:15:37;;;;;;;13.13;2.63;;;10.90;99.90;;;;;;5046023;28;20049;-67
2022/03/14 10:18:09;;;;;;;6.57;1.75;;;11.00;99.90;;;;;;5044287;28;20016;-67
2022/03/14 10:20:35;;;;;;;4.20;1.80;;;10.90;99.90;;;;;;5038381;28;20021;-67
2022/03/14 10:23:01;;;;;;;9.43;2.83;;;11.00;99.90;;;;;;5049461;28;20103;-67
2022/03/14 10:25:28;;;;;;;6.95;1.27;;;11.00;99.90;;;;;;5041256;28;20080;-67
2022/03/14 10:27:55;;;;;;;7.03;2.85;;;10.90;99.90;;;;;;5047735;28;20024;-67
2022/03/14 10:30:46;;;;;;;7.30;2.00;;;10.80;99.90;;;;;;5037251;28;20049;-67
2022/03/14 10:33:13;;;;;;;7.05;2.38;;;11.00;99.90;;;;;;5043183;28;20029;-67
2022/03/14 10:35:42;;;;;;;5.93;2.50;;;11.30;99.90;;;;;;5063654;28;20016;-67
2022/03/14 10:38:09;;;;;;;6.45;2.45;;;11.20;99.90;;;;;;5043017;28;20021;-67
2022/03/14 10:40:38;;;;;;;5.40;2.40;;;11.10;99.90;;;;;;5050595;28;20055;-67
2022/03/14 10:43:27;;;;;;;3.90;1.90;;;11.10;99.90;;;;;;5043039;28;20088;-67
2022/03/14 10:45:54;;;;;;;10.45;1.80;;;11.00;99.90;;;;;;5037470;28;20493;-67
2022/03/14 10:48:45;;;;;;;6.20;2.08;;;11.00;99.90;;;;;;5038750;28;20043;-67
2022/03/14 10:51:14;;;;;;;6.57;2.03;;;10.90;99.90;;;;;;5042215;28;20515;-67
2022/03/14 10:53:45;;;;;;;6.63;2.38;;;10.90;99.90;;;;;;5037989;28;20405;-67
2022/03/14 10:56:11;;;;;;;5.00;1.73;;;10.60;99.90;;;;;;5042855;28;20048;-67
2022/03/14 10:58:38;;;;;;;4.72;1.95;;;10.60;99.90;;;;;;5039924;28;20106;-67
2022/03/14 11:01:12;;;;;;;7.10;2.20;;;10.50;99.90;;;;;;5044792;28;20025;-67
2022/03/14 11:03:41;;;;;;;6.65;1.98;;;10.40;99.90;;;;;;5043892;28;20482;-67
2022/03/14 11:06:14;;;;;;;7.00;2.53;;;10.50;99.90;;;;;;5050968;28;20036;-67
2022/03/14 11:08:45;;;;;;;4.82;1.95;;;10.50;99.90;;;;;;5044761;28;20044;-67
2022/03/14 11:11:21;;;;;;;7.03;2.08;;;10.60;99.90;;;;;;5042786;28;20589;-67
2022/03/14 11:13:49;;;;;;;6.68;2.05;;;10.60;99.90;;;;;;5040737;28;20053;-67
2022/03/14 11:16:19;;;;;;;10.95;2.17;;;10.90;99.90;;;;;;5033575;28;20025;-67
2022/03/14 11:18:45;;;;;;;4.63;1.90;;;11.40;99.90;;;;;;5049810;28;20024;-67
2022/03/14 11:21:18;;;;;;;3.28;1.65;;;11.50;99.90;;;;;;5041951;28;20112;-67
2022/03/14 11:23:46;;;;;;;7.43;2.00;;;11.70;99.90;;;;;;5043102;28;20044;-67
2022/03/14 11:26:13;;;;;;;11.95;2.28;;;12.10;99.90;;;;;;5039948;28;20068;-67
2022/03/14 11:28:41;;;;;;;9.98;2.15;;;12.40;99.90;;;;;;5039256;28;20020;-67
2022/03/14 11:31:07;;;;;;;5.82;2.13;;;12.30;99.90;;;;;;5038201;28;20459;-67
2022/03/14 11:33:35;;;;;;;10.00;2.42;;;12.00;99.90;;;;;;5041814;28;20132;-67
2022/03/14 11:36:02;;;;;;;2.05;1.02;;;12.10;99.90;;;;;;5038814;28;20036;-67
2022/03/14 11:38:28;;;;;;;6.15;2.47;;;11.80;99.90;;;;;;5035839;28;20048;-67
2022/03/14 11:40:55;;;;;;;7.88;2.40;;;11.90;99.90;;;;;;5039647;28;20179;-67
2022/03/14 11:43:21;;;;;;;3.78;1.50;;;11.80;99.90;;;;;;5043098;28;20036;-67
2022/03/14 11:45:47;;;;;;;5.53;1.73;;;12.20;99.90;;;;;;5035636;28;20029;-67
2022/03/14 11:48:14;;;;;;;5.45;1.83;;;12.80;99.90;;;;;;5042325;28;20036;-67
2022/03/14 11:50:48;;;;;;;5.93;1.80;;;13.20;99.90;;;;;;5032581;28;20512;-67
2022/03/14 11:53:19;;;;;;;3.03;1.42;;;13.70;99.90;;;;;;5036760;28;20029;-67
2022/03/14 11:55:52;;;;;;;4.85;1.80;;;13.30;99.90;;;;;;5041329;28;20030;-67
2022/03/14 11:58:40;;;;;;;7.25;1.67;;;13.10;99.90;;;;;;5035159;28;20147;-67
2022/03/14 12:01:29;;;;;;;4.93;2.22;;;12.80;99.90;;;;;;5034562;28;20087;-67
2022/03/14 12:04:00;;;;;;;3.83;1.52;;;12.70;99.90;;;;;;5032807;28;20055;-67
2022/03/14 12:06:47;;;;;;;6.45;2.28;;;12.50;99.90;;;;;;5031351;28;20068;-67
2022/03/14 12:09:25;;;;;;;4.43;1.85;;;12.50;99.90;;;;;;5038221;28;20774;-67
2022/03/14 12:12:12;;;;;;;3.00;1.67;;;12.90;99.90;;;;;;5037811;28;20072;-67
2022/03/14 12:14:47;;;;;;;13.88;2.00;;;13.30;99.90;;;;;;5038078;28;20082;-67
2022/03/14 12:17:13;;;;;;;7.35;1.70;;;13.60;99.90;;;;;;5042666;28;20017;-67
2022/03/14 12:19:42;;;;;;;6.18;1.98;;;14.50;99.90;;;;;;5042450;28;20025;-67
2022/03/14 12:22:13;;;;;;;3.88;1.23;;;15.20;99.90;;;;;;5037361;28;20048;-67
2022/03/14 12:24:39;;;;;;;6.93;2.08;;;14.00;99.90;;;;;;5039794;28;20083;-67
2022/03/14 12:27:18;;;;;;;4.30;1.85;;;13.80;99.90;;;;;;5041246;28;20033;-67
2022/03/14 12:29:45;;;;;;;9.23;2.63;;;13.60;99.90;;;;;;5035261;28;20489;-67
2022/03/14 12:32:33;;;;;;;2.92;1.38;;;13.50;99.90;;;;;;5039032;28;20029;-67
2022/03/14 12:35:08;;;;;;;6.85;1.77;;;13.70;99.90;;;;;;5033684;28;20083;-67
2022/03/14 12:37:41;;;;;;;6.00;2.13;;;13.60;99.90;;;;;;5043670;28;20048;-67
2022/03/14 12:40:12;;;;;;;4.65;1.42;;;13.10;99.90;;;;;;5033432;28;20112;-67
2022/03/14 12:42:40;;;;;;;9.95;1.90;;;12.80;99.90;;;;;;5027342;28;20075;-67
2022/03/14 12:45:20;;;;;;;4.75;1.85;;;12.90;99.90;;;;;;5022538;28;20048;-68
2022/03/14 12:48:02;;;;;;;4.90;1.75;;;13.00;99.90;;;;;;5027470;28;20917;-67
2022/03/14 12:50:43;;;;;;;5.60;1.63;;;13.00;99.90;;;;;;5026444;28;20017;-67